Time;durP1;ratioP1;P1;durP2;ratioP2;P2;SDS_P1;SDS_P2;PMS_P1;PMS_P2;Temp;Humidity;BMP_temperature;BMP_pressure;BME280_temperature;BME280_humidity;BME280_pressure;Samples;Min_cycle;Max_cycle;Signal;HPM_P1;HPM_P2
2022/10/21 00:01:11;;;;;;;5.57;4.00;;;18.90;71.50;20.00;100085.00;;;;5068661;28;20169;-50
2022/10/21 00:03:37;;;;;;;4.50;3.80;;;18.90;71.50;20.00;100090.00;;;;5068109;28;20178;-51
2022/10/21 00:06:03;;;;;;;4.67;4.23;;;18.90;71.50;20.00;100099.00;;;;5068400;28;20177;-52
2022/10/21 00:08:28;;;;;;;4.67;3.80;;;18.90;71.50;20.00;100089.00;;;;5067312;28;20195;-60
2022/10/21 00:10:57;;;;;;;4.00;3.60;;;18.90;71.60;20.00;100103.00;;;;5068414;28;20777;-51
2022/10/21 00:13:23;;;;;;;4.63;4.00;;;18.90;71.60;20.00;100112.00;;;;5067004;28;20665;-52
2022/10/21 00:16:06;;;;;;;4.60;3.90;;;18.90;71.50;20.00;100132.00;;;;5068301;28;20266;-52
2022/10/21 00:18:32;;;;;;;4.60;4.10;;;18.90;71.60;20.00;100138.00;;;;5068396;28;20225;-52
2022/10/21 00:20:58;;;;;;;4.37;3.97;;;18.80;71.60;20.00;100126.00;;;;5068678;28;20200;-52
2022/10/21 00:23:24;;;;;;;4.40;4.00;;;18.90;71.80;19.90;100121.00;;;;5071970;28;20267;-52
2022/10/21 00:25:49;;;;;;;3.90;3.50;;;18.80;71.60;19.90;100122.00;;;;5070916;28;20173;-52
2022/10/21 00:28:15;;;;;;;4.27;3.87;;;18.80;71.70;19.90;100120.00;;;;5066917;28;20213;-51
2022/10/21 00:30:44;;;;;;;4.40;4.00;;;18.80;71.70;19.90;100109.00;;;;5068203;28;20173;-51
2022/10/21 00:33:11;;;;;;;4.27;3.90;;;18.80;71.70;19.90;100100.00;;;;5066567;28;20196;-52
2022/10/21 00:35:37;;;;;;;4.40;4.00;;;18.80;71.70;19.90;100110.00;;;;5066696;28;20180;-52
2022/10/21 00:38:03;;;;;;;4.03;3.63;;;18.80;71.60;19.90;100109.00;;;;5067879;28;20201;-52
2022/10/21 00:40:29;;;;;;;4.23;3.80;;;18.80;71.70;19.90;100118.00;;;;5067548;28;20638;-53
2022/10/21 00:42:54;;;;;;;4.47;4.07;;;18.80;71.70;19.90;100116.00;;;;5067850;28;20170;-52
2022/10/21 00:45:23;;;;;;;4.73;3.70;;;18.80;71.70;19.90;100106.00;;;;5068849;28;20508;-52
2022/10/21 00:48:34;;;;;;;4.00;3.60;;;18.80;71.80;19.90;100108.00;;;;5068430;28;20173;-52
2022/10/21 00:51:12;;;;;;;5.10;3.87;;;18.80;71.80;19.90;100102.00;;;;5041843;28;20559;-52
2022/10/21 00:53:39;;;;;;;4.63;3.70;;;18.80;71.90;19.90;100093.00;;;;5066663;28;20231;-51
2022/10/21 00:56:11;;;;;;;5.33;3.90;;;18.80;72.00;19.80;100096.00;;;;5066539;28;20170;-51
2022/10/21 00:58:37;;;;;;;4.30;3.90;;;18.80;72.10;19.90;100056.00;;;;5066597;28;20267;-52
2022/10/21 01:01:04;;;;;;;4.23;3.77;;;18.70;72.10;19.90;100096.00;;;;5068135;28;20169;-52
2022/10/21 01:03:31;;;;;;;4.40;4.00;;;18.80;72.20;19.80;100081.00;;;;5066658;28;20165;-52
2022/10/21 01:05:59;;;;;;;3.97;3.60;;;18.80;72.20;19.90;100076.00;;;;5068198;28;20259;-52
2022/10/21 01:08:25;;;;;;;5.47;3.97;;;18.80;72.20;19.90;100074.00;;;;5066586;28;20239;-52
2022/10/21 01:10:51;;;;;;;3.97;3.60;;;18.80;72.10;19.90;100070.00;;;;5066603;28;20253;-52
2022/10/21 01:13:50;;;;;;;4.83;3.80;;;18.80;72.20;19.90;100055.00;;;;5067641;28;20177;-51
2022/10/21 01:16:43;;;;;;;4.00;3.60;;;18.70;72.00;19.80;100046.00;;;;5066619;28;20239;-51
2022/10/21 01:19:34;;;;;;;4.80;3.80;;;18.70;72.10;19.80;100033.00;;;;5066488;28;20198;-51
2022/10/21 01:22:28;;;;;;;4.40;4.00;;;18.80;72.20;19.80;100043.00;;;;5066586;28;20274;-51
2022/10/21 01:25:12;;;;;;;3.80;3.50;;;18.70;72.10;19.80;100034.00;;;;5067408;28;20764;-51
2022/10/21 01:28:20;;;;;;;4.13;3.73;;;18.80;72.20;19.80;100039.00;;;;5066383;28;20224;-51
2022/10/21 01:30:53;;;;;;;4.33;3.87;;;18.70;72.10;19.80;100040.00;;;;5066497;28;20181;-50
2022/10/21 01:33:44;;;;;;;3.70;3.47;;;18.70;72.10;19.80;100043.00;;;;5066250;28;20682;-50
2022/10/21 01:36:40;;;;;;;4.47;3.70;;;18.70;72.10;19.80;100044.00;;;;5035692;28;20251;-51
2022/10/21 01:39:24;;;;;;;3.83;3.53;;;18.70;72.10;19.80;100008.00;;;;5070484;28;20244;-50
2022/10/21 01:42:17;;;;;;;3.90;3.60;;;18.70;72.10;19.80;100044.00;;;;5065910;28;20971;-51
2022/10/21 01:44:54;;;;;;;5.30;3.60;;;18.70;72.10;19.70;100029.00;;;;5067545;28;20158;-50
2022/10/21 01:47:28;;;;;;;3.90;3.60;;;18.70;72.20;19.70;100035.00;;;;5066482;28;20230;-51
2022/10/21 01:50:02;;;;;;;3.70;3.40;;;18.70;72.20;19.70;100032.00;;;;5066196;28;20240;-51
2022/10/21 01:52:28;;;;;;;4.20;3.80;;;18.70;72.20;19.70;100021.00;;;;5067799;28;20162;-52
2022/10/21 01:55:00;;;;;;;4.00;3.60;;;18.70;72.20;19.70;100014.00;;;;5069558;28;20166;-51
2022/10/21 01:57:35;;;;;;;3.70;3.40;;;18.70;72.10;19.70;100017.00;;;;5069668;28;20219;-51
2022/10/21 02:00:00;;;;;;;3.90;3.60;;;18.70;72.10;19.70;100017.00;;;;5069526;28;20193;-51
2022/10/21 02:02:29;;;;;;;3.80;3.50;;;18.70;72.20;19.70;100012.00;;;;5069557;28;20180;-51
2022/10/21 02:04:56;;;;;;;3.80;3.50;;;18.70;72.20;19.70;100013.00;;;;5069422;28;20638;-50
2022/10/21 02:07:22;;;;;;;3.60;3.30;;;18.70;72.10;19.70;100008.00;;;;5069329;28;20676;-51
2022/10/21 02:09:47;;;;;;;3.90;3.60;;;18.70;72.30;19.70;100011.00;;;;5070536;28;20213;-51
2022/10/21 02:12:13;;;;;;;3.93;3.63;;;18.60;72.10;19.70;99995.00;;;;5070618;28;20177;-51
2022/10/21 02:14:46;;;;;;;3.70;3.40;;;18.60;72.10;19.70;99997.00;;;;5069133;28;20198;-53
2022/10/21 02:17:15;;;;;;;3.43;3.20;;;18.60;72.10;19.70;99981.00;;;;5069024;28;20217;-50
2022/10/21 02:19:40;;;;;;;3.80;3.50;;;18.60;72.10;19.70;99976.00;;;;5069403;28;20199;-51
2022/10/21 02:22:06;;;;;;;3.57;3.27;;;18.60;72.10;19.70;99989.00;;;;5071655;28;20189;-51
2022/10/21 02:24:42;;;;;;;3.43;3.20;;;18.60;72.10;19.70;99956.00;;;;5071133;28;20174;-52
2022/10/21 02:27:08;;;;;;;3.60;3.30;;;18.60;72.10;19.70;99969.00;;;;5069327;28;20626;-50
2022/10/21 02:29:37;;;;;;;3.80;3.50;;;18.60;72.10;19.70;99975.00;;;;5070291;28;20201;-51
2022/10/21 02:32:35;;;;;;;3.67;3.37;;;18.60;72.10;19.70;99979.00;;;;5069121;28;20174;-52
2022/10/21 02:35:09;;;;;;;3.50;3.20;;;18.60;72.10;19.70;99983.00;;;;5069088;28;20165;-51
2022/10/21 02:37:49;;;;;;;3.70;3.40;;;18.60;72.10;19.70;99985.00;;;;5069255;28;20212;-51
2022/10/21 02:40:41;;;;;;;3.87;3.47;;;18.60;72.10;19.70;99981.00;;;;5068969;28;20154;-52
2022/10/21 02:43:14;;;;;;;3.80;3.50;;;18.60;72.10;19.70;99923.00;;;;5069001;28;20158;-51
2022/10/21 02:45:40;;;;;;;4.17;3.77;;;18.60;72.10;19.60;99980.00;;;;5069837;28;20245;-53
2022/10/21 02:48:06;;;;;;;3.70;3.40;;;18.60;72.10;19.70;99923.00;;;;5081115;28;20450;-52
2022/10/21 02:50:31;;;;;;;3.60;3.30;;;18.50;72.10;19.70;99973.00;;;;5090439;28;20692;-50
2022/10/21 02:52:57;;;;;;;3.53;3.17;;;18.60;72.20;19.70;99983.00;;;;5090126;28;20629;-52
2022/10/21 02:55:23;;;;;;;3.57;3.27;;;18.60;72.30;19.70;99972.00;;;;5089794;28;20180;-51
2022/10/21 02:57:48;;;;;;;3.30;3.00;;;18.60;72.30;19.70;99981.00;;;;5089973;28;20204;-51
2022/10/21 03:00:14;;;;;;;3.60;3.30;;;18.50;72.20;19.60;99980.00;;;;5088731;28;20188;-51
2022/10/21 03:02:41;;;;;;;3.73;3.43;;;18.50;72.10;19.60;99972.00;;;;5089540;28;20660;-51
2022/10/21 03:05:08;;;;;;;3.33;3.13;;;18.50;72.10;19.60;99988.00;;;;5089403;28;20252;-51
2022/10/21 03:07:34;;;;;;;3.73;3.43;;;18.50;72.20;19.70;99977.00;;;;5088410;28;20204;-51
2022/10/21 03:10:00;;;;;;;3.20;2.90;;;18.50;72.10;19.60;99970.00;;;;5089524;28;20227;-53
2022/10/21 03:12:25;;;;;;;3.83;3.40;;;18.50;72.20;19.60;99981.00;;;;5088612;28;20615;-52
2022/10/21 03:14:51;;;;;;;3.50;3.20;;;18.50;72.30;19.60;99968.00;;;;5088127;28;20641;-52
2022/10/21 03:17:17;;;;;;;3.80;3.33;;;18.50;72.40;19.60;99967.00;;;;5089666;28;20220;-51
2022/10/21 03:19:42;;;;;;;3.87;3.10;;;18.50;72.70;19.60;99983.00;;;;5089470;28;20681;-52
2022/10/21 03:22:08;;;;;;;3.80;3.33;;;18.50;73.10;19.60;99970.00;;;;5089837;28;20169;-51
2022/10/21 03:24:34;;;;;;;7.77;3.70;;;18.50;72.80;19.60;99973.00;;;;5089428;28;20224;-52
2022/10/21 03:27:00;;;;;;;5.87;3.30;;;18.50;72.70;19.60;99974.00;;;;5089553;28;20259;-51
2022/10/21 03:29:25;;;;;;;9.00;3.60;;;18.50;72.70;19.60;99968.00;;;;5089205;28;20189;-52
2022/10/21 03:31:51;;;;;;;6.17;3.47;;;18.50;72.80;19.60;99973.00;;;;5089481;28;20172;-49
2022/10/21 03:34:17;;;;;;;3.77;3.30;;;18.50;72.80;19.60;99967.00;;;;5089338;28;20541;-51
2022/10/21 03:36:42;;;;;;;4.70;3.10;;;18.40;73.40;19.60;99975.00;;;;5089391;28;20173;-51
2022/10/21 03:39:10;;;;;;;4.43;3.20;;;18.50;72.70;19.60;99962.00;;;;5089355;28;20189;-51
2022/10/21 03:41:36;;;;;;;5.27;3.17;;;18.50;72.60;19.60;99960.00;;;;5089395;28;20169;-51
2022/10/21 03:44:01;;;;;;;3.50;3.20;;;18.50;72.50;19.60;99961.00;;;;5088775;28;20230;-51
2022/10/21 03:46:27;;;;;;;4.67;3.20;;;18.50;72.40;19.60;99956.00;;;;5089747;28;20220;-52
2022/10/21 03:48:53;;;;;;;3.50;3.20;;;18.50;72.40;19.60;99952.00;;;;5089642;28;20197;-51
2022/10/21 03:51:18;;;;;;;3.57;3.20;;;18.50;72.40;19.60;99958.00;;;;5089650;28;20605;-52
2022/10/21 03:53:44;;;;;;;3.50;3.20;;;18.50;72.30;19.60;99969.00;;;;5089431;28;20669;-51
2022/10/21 03:56:11;;;;;;;3.80;3.13;;;18.50;72.30;19.60;99976.00;;;;5089393;28;20219;-50
2022/10/21 03:58:37;;;;;;;3.80;3.00;;;18.50;72.30;19.60;99967.00;;;;5089762;28;20230;-51
2022/10/21 04:01:02;;;;;;;3.30;3.00;;;18.40;72.30;19.60;99957.00;;;;5089443;28;20224;-50
2022/10/21 04:03:28;;;;;;;3.80;3.20;;;18.40;72.20;19.60;99958.00;;;;5088839;28;20172;-51
2022/10/21 04:05:54;;;;;;;3.23;3.03;;;18.40;72.20;19.50;99964.00;;;;5088937;28;20201;-51
2022/10/21 04:08:20;;;;;;;3.53;3.23;;;18.40;72.20;19.50;99962.00;;;;5088288;28;20261;-52
2022/10/21 04:10:46;;;;;;;4.27;3.17;;;18.40;72.30;19.50;99957.00;;;;5089537;28;20185;-51
2022/10/21 04:13:11;;;;;;;3.73;3.43;;;18.40;72.30;19.50;99968.00;;;;5089313;28;20173;-52
2022/10/21 04:15:37;;;;;;;3.50;3.20;;;18.40;72.40;19.50;99963.00;;;;5088369;28;20192;-52
2022/10/21 04:18:04;;;;;;;4.07;3.37;;;18.40;72.40;19.50;99957.00;;;;5088910;28;20209;-51
2022/10/21 04:20:30;;;;;;;5.50;3.20;;;18.40;72.40;19.50;99967.00;;;;5088128;28;20644;-51
2022/10/21 04:22:55;;;;;;;3.77;3.47;;;18.40;72.40;19.50;99967.00;;;;5087984;28;20173;-50
2022/10/21 04:25:21;;;;;;;3.70;3.40;;;18.40;72.40;19.50;99958.00;;;;5089012;28;20169;-52
2022/10/21 04:27:47;;;;;;;3.30;3.00;;;18.40;72.40;19.50;99958.00;;;;5087962;28;20185;-52
2022/10/21 04:30:13;;;;;;;4.90;3.43;;;18.40;72.40;19.50;99962.00;;;;5089493;28;20722;-52
2022/10/21 04:32:38;;;;;;;4.57;3.20;;;18.40;72.40;19.50;99964.00;;;;5089465;28;20571;-52
2022/10/21 04:35:04;;;;;;;4.03;3.00;;;18.40;72.50;19.50;99965.00;;;;5089162;28;20184;-50
2022/10/21 04:37:30;;;;;;;3.17;2.87;;;18.30;72.40;19.50;99956.00;;;;5089601;28;20224;-50
2022/10/21 04:39:56;;;;;;;3.73;3.20;;;18.40;72.50;19.50;99968.00;;;;5089033;28;20620;-51
2022/10/21 04:42:22;;;;;;;3.43;3.00;;;18.40;72.50;19.50;99972.00;;;;5089426;28;20180;-51
2022/10/21 04:44:48;;;;;;;3.30;3.00;;;18.40;72.50;19.50;99959.00;;;;5088962;28;20169;-51
2022/10/21 04:47:14;;;;;;;3.53;3.00;;;18.30;72.40;19.50;99952.00;;;;5087750;28;20544;-53
2022/10/21 04:49:39;;;;;;;3.43;3.03;;;18.40;72.60;19.50;99963.00;;;;5088860;28;20317;-51
2022/10/21 04:52:05;;;;;;;4.67;3.00;;;18.30;72.50;19.50;99959.00;;;;5088804;28;20175;-51
2022/10/21 04:54:31;;;;;;;3.70;3.23;;;18.30;72.50;19.50;99949.00;;;;5088817;28;20184;-51
2022/10/21 04:56:57;;;;;;;5.80;3.40;;;18.30;72.50;19.40;99954.00;;;;5088886;28;20850;-51
2022/10/21 04:59:22;;;;;;;3.80;3.20;;;18.30;72.60;19.40;99953.00;;;;5087752;28;20697;-51
2022/10/21 05:01:48;;;;;;;3.07;2.77;;;18.30;72.70;19.40;99956.00;;;;5088720;28;20230;-51
2022/10/21 05:04:14;;;;;;;4.87;3.10;;;18.30;72.70;19.40;99948.00;;;;5088896;28;20177;-51
2022/10/21 05:06:39;;;;;;;3.83;3.10;;;18.30;72.90;19.40;99955.00;;;;5078392;28;20177;-52
2022/10/21 05:09:05;;;;;;;4.63;3.00;;;18.30;72.90;19.40;99949.00;;;;5068051;28;20186;-50
2022/10/21 05:11:31;;;;;;;5.23;3.20;;;18.30;72.90;19.40;99944.00;;;;5082844;28;20591;-51
2022/10/21 05:13:57;;;;;;;8.87;3.30;;;18.30;72.90;19.40;99935.00;;;;5088415;28;20637;-52
2022/10/21 05:16:22;;;;;;;5.40;3.10;;;18.30;72.90;19.40;99919.00;;;;5088653;28;20222;-51
2022/10/21 05:18:49;;;;;;;5.37;3.17;;;18.30;72.90;19.40;99930.00;;;;5088912;28;20269;-51
2022/10/21 05:21:14;;;;;;;5.37;3.50;;;18.30;72.90;19.40;99918.00;;;;5088369;28;20778;-51
2022/10/21 05:23:40;;;;;;;3.63;2.90;;;18.30;72.90;19.40;99922.00;;;;5088480;28;20158;-50
2022/10/21 05:26:06;;;;;;;6.43;3.50;;;18.30;72.90;19.40;99924.00;;;;5089537;28;20169;-51
2022/10/21 05:28:32;;;;;;;5.50;3.10;;;18.30;72.90;19.40;99928.00;;;;5092431;28;20197;-51
2022/10/21 05:30:57;;;;;;;5.33;3.00;;;18.30;72.90;19.40;99912.00;;;;5092111;28;20546;-51
2022/10/21 05:33:23;;;;;;;4.17;2.90;;;18.30;72.90;19.40;99912.00;;;;5092075;28;20185;-51
2022/10/21 05:36:00;;;;;;;4.10;3.00;;;18.30;72.90;19.40;99845.00;;;;5091391;28;20260;-51
2022/10/21 05:38:28;;;;;;;4.40;3.13;;;18.30;72.90;19.40;99903.00;;;;5090025;28;20296;-51
2022/10/21 05:40:54;;;;;;;3.93;3.10;;;18.30;72.90;19.40;99899.00;;;;5091230;28;20161;-51
2022/10/21 05:43:19;;;;;;;5.87;2.93;;;18.30;72.90;19.40;99899.00;;;;5095011;28;20188;-51
2022/10/21 05:45:45;;;;;;;7.13;3.40;;;18.20;72.80;19.40;99891.00;;;;5093037;28;20547;-51
2022/10/21 05:48:11;;;;;;;5.20;3.00;;;18.30;72.90;19.40;99897.00;;;;5090712;28;20281;-51
2022/10/21 05:50:37;;;;;;;5.03;3.03;;;18.30;72.90;19.40;99890.00;;;;5091237;28;20177;-52
2022/10/21 05:53:02;;;;;;;3.70;2.87;;;18.30;72.90;19.40;99877.00;;;;5090884;28;20188;-51
2022/10/21 05:55:28;;;;;;;5.50;3.10;;;18.20;72.80;19.40;99883.00;;;;5091385;28;20169;-51
2022/10/21 05:57:54;;;;;;;3.13;2.80;;;18.20;72.80;19.40;99879.00;;;;5091228;28;20197;-52
2022/10/21 06:00:20;;;;;;;3.50;2.63;;;18.20;72.80;19.40;99892.00;;;;5091400;28;20189;-51
2022/10/21 06:02:45;;;;;;;3.73;2.80;;;18.20;72.70;19.30;99885.00;;;;5091276;28;20181;-52
2022/10/21 06:05:11;;;;;;;3.37;2.90;;;18.20;72.80;19.30;99895.00;;;;5089888;28;20244;-50
2022/10/21 06:07:37;;;;;;;3.10;2.80;;;18.20;72.80;19.30;99893.00;;;;5090308;28;20168;-50
2022/10/21 06:10:03;;;;;;;3.37;2.70;;;18.20;72.80;19.40;99894.00;;;;5091455;28;20197;-51
2022/10/21 06:12:29;;;;;;;3.03;2.73;;;18.20;72.80;19.40;99887.00;;;;5091661;28;20573;-50
2022/10/21 06:14:54;;;;;;;4.60;2.73;;;18.20;72.80;19.30;99885.00;;;;5090932;28;20188;-50
2022/10/21 06:17:20;;;;;;;3.83;3.00;;;18.20;72.80;19.30;99891.00;;;;5091402;28;20203;-53
2022/10/21 06:19:47;;;;;;;3.00;2.80;;;18.20;72.70;19.30;99896.00;;;;5089799;28;20197;-51
2022/10/21 06:22:13;;;;;;;3.37;2.80;;;18.20;72.80;19.30;99888.00;;;;5091038;28;20540;-50
2022/10/21 06:24:39;;;;;;;3.30;2.90;;;18.20;72.80;19.30;99803.00;;;;5090082;28;20200;-50
2022/10/21 06:27:04;;;;;;;3.03;2.67;;;18.20;72.80;19.30;99883.00;;;;5091058;28;20208;-51
2022/10/21 06:29:30;;;;;;;4.30;2.80;;;18.20;72.90;19.30;99881.00;;;;5089067;28;20201;-51
2022/10/21 06:31:56;;;;;;;4.37;2.73;;;18.20;72.90;19.30;99884.00;;;;5090043;28;20180;-51
2022/10/21 06:34:21;;;;;;;3.20;2.90;;;18.20;72.90;19.30;99881.00;;;;5088884;28;20562;-52
2022/10/21 06:36:47;;;;;;;3.70;3.00;;;18.20;72.90;19.30;99880.00;;;;5091064;28;20181;-52
2022/10/21 06:39:13;;;;;;;3.20;2.80;;;18.20;72.70;19.30;99884.00;;;;5089984;28;20551;-53
2022/10/21 06:41:39;;;;;;;2.60;2.40;;;18.20;72.80;19.30;99878.00;;;;5090281;28;20169;-50
2022/10/21 06:44:04;;;;;;;3.13;2.80;;;18.20;72.90;19.30;99878.00;;;;5091200;28;20173;-50
2022/10/21 06:46:30;;;;;;;2.70;2.50;;;18.20;72.90;19.30;99878.00;;;;5090300;28;20223;-50
2022/10/21 06:48:56;;;;;;;3.00;2.70;;;18.20;72.90;19.30;99897.00;;;;5089226;28;20212;-51
2022/10/21 06:51:23;;;;;;;3.07;2.77;;;18.20;73.00;19.30;99847.00;;;;5089654;28;20227;-52
2022/10/21 06:53:55;;;;;;;2.70;2.50;;;18.20;73.00;19.30;99900.00;;;;5088709;28;20177;-52
2022/10/21 06:56:21;;;;;;;3.00;2.73;;;18.10;72.80;19.30;99909.00;;;;5089122;28;20201;-51
2022/10/21 06:58:48;;;;;;;2.80;2.50;;;18.10;72.90;19.30;99914.00;;;;5090106;28;20620;-51
2022/10/21 07:01:19;;;;;;;2.80;2.60;;;18.20;73.00;19.30;99893.00;;;;5090699;28;20699;-52
2022/10/21 07:03:45;;;;;;;3.00;2.53;;;18.10;72.80;19.30;99904.00;;;;5092147;28;20159;-53
2022/10/21 07:06:11;;;;;;;3.17;2.60;;;18.10;72.90;19.30;99915.00;;;;5086940;28;20173;-52
2022/10/21 07:08:38;;;;;;;2.83;2.60;;;18.10;72.90;19.30;99915.00;;;;5027962;28;20283;-52
2022/10/21 07:11:04;;;;;;;2.70;2.50;;;18.10;72.90;19.30;99919.00;;;;5090340;28;20181;-51
2022/10/21 07:13:30;;;;;;;3.03;2.73;;;18.10;72.90;19.00;99919.00;;;;5089262;28;20185;-51
2022/10/21 07:16:07;;;;;;;4.17;2.73;;;18.10;72.90;19.30;99928.00;;;;5090077;28;20279;-51
2022/10/21 07:18:33;;;;;;;2.70;2.50;;;18.10;72.90;19.30;99938.00;;;;5088701;28;20208;-51
2022/10/21 07:21:08;;;;;;;2.70;2.50;;;18.10;72.90;19.30;99945.00;;;;5088775;28;20184;-51
2022/10/21 07:23:34;;;;;;;3.23;2.60;;;18.20;73.10;19.30;99890.00;;;;5089588;28;20175;-52
2022/10/21 07:26:04;;;;;;;2.80;2.60;;;18.10;73.00;19.30;99951.00;;;;5090514;28;20177;-51
2022/10/21 07:28:30;;;;;;;2.87;2.67;;;18.10;73.00;19.20;99968.00;;;;5090429;28;20258;-52
2022/10/21 07:30:55;;;;;;;2.93;2.50;;;18.10;73.00;19.20;99967.00;;;;5090602;28;20653;-51
2022/10/21 07:33:21;;;;;;;2.97;2.67;;;18.10;73.00;19.20;99968.00;;;;5089348;28;20828;-51
2022/10/21 07:35:47;;;;;;;2.70;2.50;;;18.10;73.00;19.20;99968.00;;;;5086624;28;20215;-51
2022/10/21 07:38:12;;;;;;;2.63;2.40;;;18.10;73.10;19.20;99972.00;;;;5089066;28;20205;-51
2022/10/21 07:40:40;;;;;;;2.87;2.67;;;18.10;73.10;19.20;99968.00;;;;5089893;28;20199;-51
2022/10/21 07:43:06;;;;;;;2.87;2.50;;;18.10;73.10;19.20;99977.00;;;;5078631;28;20216;-51
2022/10/21 07:45:32;;;;;;;2.87;2.57;;;18.10;73.10;19.20;99968.00;;;;5069577;28;20193;-51
2022/10/21 07:47:58;;;;;;;2.60;2.40;;;18.10;73.10;19.30;99978.00;;;;5070641;28;20685;-51
2022/10/21 07:50:24;;;;;;;2.60;2.40;;;18.10;73.20;19.20;99984.00;;;;5076679;28;20183;-50
2022/10/21 07:52:49;;;;;;;2.70;2.50;;;18.10;73.30;19.20;99996.00;;;;5089057;28;20602;-51
2022/10/21 07:55:16;;;;;;;2.60;2.40;;;18.10;73.30;19.20;99988.00;;;;5095525;28;20192;-51
2022/10/21 07:57:42;;;;;;;2.57;2.37;;;18.10;73.30;19.20;99986.00;;;;5089757;28;20566;-51
2022/10/21 08:00:09;;;;;;;2.87;2.50;;;18.10;73.30;19.20;99991.00;;;;5089069;28;20196;-52
2022/10/21 08:02:34;;;;;;;2.50;2.30;;;18.10;73.30;19.20;99990.00;;;;5088983;28;20181;-51
2022/10/21 08:05:00;;;;;;;2.50;2.30;;;18.10;73.30;19.20;99989.00;;;;5088902;28;20177;-52
2022/10/21 08:07:26;;;;;;;2.73;2.53;;;18.10;73.40;19.20;99988.00;;;;5029884;28;20181;-50
2022/10/21 08:09:51;;;;;;;2.80;2.60;;;18.10;73.40;19.20;100002.00;;;;5094553;28;20643;-52
2022/10/21 08:12:17;;;;;;;2.77;2.57;;;18.10;73.40;19.20;100013.00;;;;5089465;28;20246;-53
2022/10/21 08:14:43;;;;;;;2.67;2.47;;;18.10;73.30;19.20;99968.00;;;;5088984;28;20246;-52
2022/10/21 08:17:09;;;;;;;2.53;2.33;;;18.10;73.40;19.20;100015.00;;;;5089104;28;20257;-50
2022/10/21 08:19:34;;;;;;;2.50;2.30;;;18.10;73.40;19.20;100018.00;;;;5087576;28;20264;-50
2022/10/21 08:22:00;;;;;;;2.70;2.10;;;18.10;73.40;19.20;100024.00;;;;5088526;28;20169;-51
2022/10/21 08:24:27;;;;;;;2.40;2.20;;;18.10;73.50;19.20;100024.00;;;;5088500;28;20181;-51
2022/10/21 08:26:52;;;;;;;2.43;2.23;;;18.10;73.40;19.20;100022.00;;;;5088932;28;20171;-50
2022/10/21 08:29:18;;;;;;;2.50;2.30;;;18.10;73.40;19.20;100011.00;;;;5088801;28;20583;-52
2022/10/21 08:31:44;;;;;;;2.03;1.93;;;18.10;73.40;19.20;100006.00;;;;5088624;28;20226;-51
2022/10/21 08:34:10;;;;;;;2.40;2.20;;;18.10;73.40;19.20;100019.00;;;;5088276;28;20168;-51
2022/10/21 08:36:36;;;;;;;3.43;2.50;;;18.00;73.30;19.20;100018.00;;;;5088956;28;20230;-50
2022/10/21 08:39:01;;;;;;;3.37;2.40;;;18.10;73.80;19.20;100019.00;;;;5088426;28;20212;-51
2022/10/21 08:41:43;;;;;;;3.10;2.40;;;18.10;73.80;19.20;100026.00;;;;5089050;28;20172;-55
2022/10/21 08:44:23;;;;;;;3.63;2.67;;;18.10;73.80;19.20;100037.00;;;;5087833;28;20246;-50
2022/10/21 08:46:56;;;;;;;2.60;2.37;;;18.10;73.90;19.20;100026.00;;;;5087289;28;20735;-52
2022/10/21 08:49:29;;;;;;;2.60;2.40;;;18.10;74.00;19.20;100033.00;;;;5087567;28;20554;-52
2022/10/21 08:52:05;;;;;;;2.80;2.60;;;18.10;74.00;19.20;100031.00;;;;5086916;28;20655;-52
2022/10/21 08:54:55;;;;;;;5.57;2.50;;;18.10;74.10;19.20;100033.00;;;;5087056;28;20179;-51
2022/10/21 08:57:21;;;;;;;7.20;2.60;;;18.20;74.20;19.20;100044.00;;;;5066805;28;20201;-51
2022/10/21 08:59:47;;;;;;;2.93;2.50;;;18.20;74.30;19.20;100049.00;;;;5066882;28;20208;-51
2022/10/21 09:02:21;;;;;;;3.30;2.47;;;18.20;74.30;19.20;100045.00;;;;5083143;28;20161;-52
2022/10/21 09:05:25;;;;;;;3.07;2.53;;;18.20;74.20;19.20;100050.00;;;;5092190;28;20229;-53
2022/10/21 09:08:15;;;;;;;4.37;2.83;;;18.20;74.20;19.20;100039.00;;;;4968546;28;20279;-51
2022/10/21 09:11:06;;;;;;;6.17;2.63;;;18.30;74.40;19.30;100033.00;;;;5090950;28;20169;-51
2022/10/21 09:14:10;;;;;;;5.70;2.50;;;18.40;74.30;19.30;100046.00;;;;5092496;28;20243;-53
2022/10/21 09:16:46;;;;;;;4.37;2.60;;;18.50;74.10;19.30;100027.00;;;;5092666;28;20192;-52
2022/10/21 09:19:54;;;;;;;5.53;2.70;;;18.60;74.80;19.40;100018.00;;;;5091957;28;20224;-50
2022/10/21 09:22:51;;;;;;;5.27;2.40;;;18.80;74.10;19.50;100008.00;;;;5093706;28;20173;-50
2022/10/21 09:25:24;;;;;;;4.20;2.43;;;18.90;74.50;19.50;99989.00;;;;5092725;28;20188;-53
2022/10/21 09:27:50;;;;;;;7.57;2.57;;;18.90;74.40;19.60;99986.00;;;;5094495;28;20149;-53
2022/10/21 09:30:20;;;;;;;5.50;2.60;;;19.00;74.60;19.60;99982.00;;;;5092499;28;20709;-52
2022/10/21 09:32:49;;;;;;;6.63;2.33;;;19.10;74.70;19.70;99991.00;;;;5090763;28;20272;-53
2022/10/21 09:35:36;;;;;;;3.23;2.30;;;19.10;74.60;19.70;100010.00;;;;5097416;28;20252;-52
2022/10/21 09:38:15;;;;;;;5.97;2.40;;;19.10;74.60;19.80;100015.00;;;;5093076;28;20215;-52
2022/10/21 09:40:41;;;;;;;5.83;2.40;;;19.20;74.90;19.80;100000.00;;;;5090617;28;20637;-52
2022/10/21 09:43:15;;;;;;;8.07;2.50;;;19.20;75.10;19.80;99992.00;;;;5090371;28;20175;-52
2022/10/21 09:45:43;;;;;;;5.70;2.47;;;19.10;75.10;19.80;99992.00;;;;5090957;28;20189;-47
2022/10/21 09:48:29;;;;;;;4.37;2.30;;;19.20;74.80;19.90;100009.00;;;;5090587;28;20201;-49
2022/10/21 09:51:10;;;;;;;4.03;2.23;;;19.20;74.50;19.90;100015.00;;;;5091672;28;20189;-48
2022/10/21 09:53:49;;;;;;;5.93;2.70;;;19.20;74.30;19.90;100009.00;;;;5091429;28;20165;-49
2022/10/21 09:56:24;;;;;;;6.30;2.23;;;19.20;74.50;19.90;100002.00;;;;5090523;28;20161;-49
2022/10/21 09:59:02;;;;;;;9.87;2.43;;;19.20;75.80;19.90;100007.00;;;;5091201;28;20204;-50
2022/10/21 10:01:28;;;;;;;6.50;2.70;;;19.30;75.80;20.00;99999.00;;;;5091670;28;20263;-49
2022/10/21 10:03:53;;;;;;;5.13;2.50;;;19.30;75.70;20.00;100002.00;;;;5090369;28;20256;-50
2022/10/21 10:06:42;;;;;;;9.33;2.53;;;19.30;75.70;20.00;100001.00;;;;5091342;28;20198;-50
2022/10/21 10:09:22;;;;;;;8.13;2.40;;;19.20;75.30;20.00;99996.00;;;;5034078;28;20673;-48
2022/10/21 10:12:00;;;;;;;5.60;2.50;;;19.30;75.40;20.00;100001.00;;;;5091984;28;20252;-49
2022/10/21 10:14:29;;;;;;;6.10;2.60;;;19.30;75.30;20.00;100007.00;;;;5090473;28;20214;-49
2022/10/21 10:16:56;;;;;;;3.73;2.20;;;19.30;75.00;20.00;100020.00;;;;5089024;28;20176;-49
2022/10/21 10:19:26;;;;;;;4.10;2.20;;;19.30;74.80;20.00;100045.00;;;;5089781;28;20193;-49
2022/10/21 10:22:27;;;;;;;6.13;2.23;;;19.30;74.70;20.10;100040.00;;;;5091122;28;20161;-48
2022/10/21 10:24:53;;;;;;;4.00;2.10;;;19.30;74.70;19.80;100051.00;;;;4992069;28;20175;-49
2022/10/21 10:27:22;;;;;;;2.67;2.10;;;19.30;74.70;20.00;100051.00;;;;5073929;28;20196;-48
2022/10/21 10:29:55;;;;;;;6.07;2.43;;;19.30;74.60;20.10;100074.00;;;;5089108;28;20663;-49
2022/10/21 10:32:23;;;;;;;3.50;2.33;;;19.30;74.70;20.10;100075.00;;;;5089935;28;20165;-48
2022/10/21 10:34:51;;;;;;;4.40;2.20;;;19.30;74.60;20.00;100081.00;;;;5089158;28;20177;-48
2022/10/21 10:37:25;;;;;;;3.67;2.60;;;19.30;74.60;20.10;100070.00;;;;5072799;28;20209;-49
2022/10/21 10:39:57;;;;;;;4.50;2.00;;;19.30;74.50;20.10;100076.00;;;;5091570;28;20250;-49
2022/10/21 10:42:30;;;;;;;5.37;2.50;;;19.30;74.50;20.10;100073.00;;;;5093520;28;20719;-49
2022/10/21 10:45:21;;;;;;;2.80;2.20;;;19.30;74.40;20.10;100092.00;;;;5091365;28;20658;-49
2022/10/21 10:48:02;;;;;;;4.00;2.40;;;19.30;74.40;20.10;100080.00;;;;5089653;28;20179;-49
2022/10/21 10:50:37;;;;;;;4.50;2.10;;;19.30;74.40;20.00;100080.00;;;;5088087;28;20184;-49
2022/10/21 10:53:35;;;;;;;3.23;2.27;;;19.30;74.40;20.10;100090.00;;;;5090335;28;20204;-49
2022/10/21 10:56:21;;;;;;;3.83;2.30;;;19.30;74.30;19.80;100083.00;;;;5082980;28;20225;-48
2022/10/21 10:59:03;;;;;;;3.40;1.93;;;19.20;74.20;20.00;100094.00;;;;5088682;28;20231;-48
2022/10/21 11:01:37;;;;;;;3.77;2.30;;;19.20;74.20;20.00;100109.00;;;;5089289;28;20160;-49
2022/10/21 11:04:31;;;;;;;3.70;2.50;;;19.20;74.20;20.00;100120.00;;;;5090403;28;20186;-48
2022/10/21 11:07:43;;;;;;;4.13;2.30;;;19.20;74.10;20.00;100114.00;;;;5073513;28;20185;-50